createdAt,value
2022-08-07T00:02:36.291Z,86.88
2022-08-07T00:04:16.263Z,86.50
2022-08-07T00:06:18.560Z,87.12
2022-08-07T00:08:32.751Z,87.15
2022-08-07T00:10:48.124Z,87.53
2022-08-07T00:13:09.616Z,89.25
2022-08-07T00:15:25.946Z,89.69
2022-08-07T00:17:40.633Z,89.51
2022-08-07T00:20:01.390Z,89.63
2022-08-07T00:22:05.983Z,90.10
2022-08-07T00:24:08.453Z,89.70
2022-08-07T00:26:13.175Z,89.52
2022-08-07T00:28:23.937Z,89.76
2022-08-07T00:30:35.176Z,88.71
2022-08-07T00:32:38.400Z,88.60
2022-08-07T00:34:41.762Z,88.76
2022-08-07T00:36:44.128Z,89.08
2022-08-07T00:38:46.025Z,89.63
2022-08-07T00:40:48.114Z,90.03
2022-08-07T00:42:50.254Z,90.50
2022-08-07T00:44:52.312Z,90.71
2022-08-07T00:46:54.703Z,90.54
2022-08-07T00:49:02.213Z,91.32
2022-08-07T00:51:05.423Z,90.71
2022-08-07T00:53:09.239Z,90.37
2022-08-07T00:55:12.908Z,90.63
2022-08-07T00:57:19.588Z,90.26
2022-08-07T00:59:35.426Z,90.09
2022-08-07T01:01:48.777Z,90.66
2022-08-07T01:03:57.092Z,91.35
2022-08-07T01:06:04.273Z,91.81
2022-08-07T01:08:06.286Z,91.97
2022-08-07T01:10:12.621Z,92.73
2022-08-07T01:12:29.618Z,94.06
2022-08-07T01:14:32.538Z,94.79
2022-08-07T01:16:43.138Z,95.15
2022-08-07T01:18:48.744Z,94.96
2022-08-07T01:21:22.492Z,95.39
2022-08-07T01:23:38.024Z,96.34
2022-08-07T01:25:55.366Z,96.35
2022-08-07T01:28:00.201Z,96.97
2022-08-07T01:30:04.929Z,97.45
2022-08-07T01:32:12.518Z,98.34
2022-08-07T01:34:18.766Z,98.25
2022-08-07T01:36:21.189Z,97.77
2022-08-07T01:38:35.737Z,97.77
2022-08-07T01:40:40.768Z,97.72
2022-08-07T01:42:57.582Z,98.28
2022-08-07T01:45:01.185Z,98.44
2022-08-07T01:48:18.071Z,98.35
2022-08-07T01:49:25.349Z,98.79
2022-08-07T01:52:01.760Z,98.43
2022-08-07T01:54:09.206Z,98.30
2022-08-07T01:56:22.717Z,98.38
2022-08-07T01:58:40.993Z,98.31
2022-08-07T02:00:57.940Z,98.68
2022-08-07T02:03:21.865Z,99.01
2022-08-07T02:05:47.838Z,99.26
2022-08-07T02:07:52.721Z,99.61
2022-08-07T02:09:58.522Z,99.61
2022-08-07T02:12:17.598Z,99.76
2022-08-07T02:14:35.847Z,99.88
2022-08-07T02:16:45.704Z,100.00
2022-08-07T02:18:51.202Z,99.96
2022-08-07T02:20:55.772Z,100.00
2022-08-07T02:23:02.928Z,100.00
2022-08-07T02:25:13.808Z,100.00
2022-08-07T02:27:22.833Z,100.00
2022-08-07T02:29:26.443Z,100.00
2022-08-07T02:31:32.779Z,100.00
2022-08-07T02:33:57.264Z,100.00
2022-08-07T02:36:29.287Z,100.00
2022-08-07T02:38:31.530Z,100.00
2022-08-07T02:40:35.567Z,100.00
2022-08-07T02:42:38.961Z,100.00
2022-08-07T02:44:48.042Z,100.00
2022-08-07T02:46:54.059Z,100.00
2022-08-07T02:48:56.579Z,100.00
2022-08-07T02:51:05.271Z,100.00
2022-08-07T02:53:13.534Z,100.00
2022-08-07T02:55:28.809Z,100.00
2022-08-07T02:57:48.039Z,100.00
2022-08-07T02:59:54.741Z,100.00
2022-08-07T03:02:02.147Z,100.00
2022-08-07T03:04:12.374Z,100.00
2022-08-07T03:06:25.541Z,100.00
2022-08-07T03:08:29.328Z,100.00
2022-08-07T03:10:32.884Z,100.00
2022-08-07T03:12:35.537Z,100.00
2022-08-07T03:14:42.560Z,100.00
2022-08-07T03:16:52.707Z,100.00
2022-08-07T03:18:55.061Z,100.00
2022-08-07T03:20:58.413Z,100.00
2022-08-07T03:23:01.421Z,100.00
2022-08-07T03:25:04.033Z,100.00
2022-08-07T03:27:13.582Z,100.00
2022-08-07T03:29:44.582Z,100.00
2022-08-07T03:31:52.449Z,100.00
2022-08-07T03:34:01.362Z,100.00
2022-08-07T03:36:03.518Z,100.00
2022-08-07T03:38:13.281Z,100.00
2022-08-07T03:40:16.929Z,100.00
2022-08-07T03:42:20.200Z,100.00
2022-08-07T03:44:31.915Z,100.00
2022-08-07T03:47:10.716Z,100.00
2022-08-07T03:49:03.484Z,100.00
2022-08-07T03:51:06.560Z,100.00
2022-08-07T03:53:13.994Z,100.00
2022-08-07T03:55:17.794Z,100.00
2022-08-07T03:58:35.204Z,100.00
2022-08-07T04:00:01.535Z,100.00
2022-08-07T04:02:06.108Z,99.88
2022-08-07T04:04:11.765Z,99.57
2022-08-07T04:06:36.378Z,98.99
2022-08-07T04:08:41.968Z,98.86
2022-08-07T04:10:54.116Z,98.31
2022-08-07T04:13:15.050Z,97.36
2022-08-07T04:15:18.503Z,96.74
2022-08-07T04:17:21.883Z,96.49
2022-08-07T04:19:50.837Z,94.63
2022-08-07T04:22:05.417Z,92.40
2022-08-07T04:24:30.665Z,90.05
2022-08-07T04:26:35.106Z,85.94
2022-08-07T04:28:37.188Z,83.31
2022-08-07T04:30:55.175Z,82.53
2022-08-07T04:32:59.377Z,81.87
2022-08-07T04:35:05.385Z,82.74
2022-08-07T04:37:15.239Z,82.45
2022-08-07T04:39:25.957Z,81.15
2022-08-07T04:41:28.755Z,81.08
2022-08-07T04:44:10.626Z,81.14
2022-08-07T04:46:20.343Z,78.89
2022-08-07T04:49:01.586Z,77.59
2022-08-07T04:51:15.663Z,76.70
2022-08-07T04:54:05.563Z,73.79
2022-08-07T04:58:13.691Z,72.33
2022-08-07T05:00:07.849Z,74.17
2022-08-07T05:01:50.627Z,73.52
2022-08-07T05:04:19.421Z,71.83
2022-08-07T05:06:43.755Z,70.42
2022-08-07T05:09:08.645Z,70.73
2022-08-07T05:11:26.160Z,70.99
2022-08-07T05:14:55.033Z,70.16
2022-08-07T05:16:04.514Z,69.97
2022-08-07T05:18:20.429Z,69.61
2022-08-07T05:20:33.965Z,69.57
2022-08-07T05:22:40.206Z,65.29
2022-08-07T05:24:44.049Z,64.88
2022-08-07T05:26:49.795Z,64.80
2022-08-07T05:29:04.231Z,65.73
2022-08-07T05:31:14.523Z,65.18
2022-08-07T05:33:21.300Z,62.96
2022-08-07T05:35:33.518Z,62.97
2022-08-07T05:37:40.838Z,64.92
2022-08-07T05:40:14.301Z,63.07
2022-08-07T05:42:34.261Z,62.61
2022-08-07T05:44:41.686Z,64.03
2022-08-07T05:46:57.727Z,63.76
2022-08-07T05:49:11.723Z,63.30
2022-08-07T05:51:15.993Z,61.42
2022-08-07T05:54:09.609Z,61.76
2022-08-07T05:56:03.272Z,62.51
2022-08-07T05:58:10.089Z,65.63
2022-08-07T06:00:16.291Z,61.75
2022-08-07T06:02:28.623Z,61.42
2022-08-07T06:04:37.620Z,62.75
2022-08-07T06:06:46.116Z,60.63
2022-08-07T06:08:51.614Z,61.04
2022-08-07T06:11:00.215Z,60.75
2022-08-07T06:13:06.055Z,59.58
2022-08-07T06:15:19.914Z,58.65
2022-08-07T06:17:23.295Z,59.34
2022-08-07T06:19:57.496Z,58.94
2022-08-07T06:22:14.339Z,59.14
2022-08-07T06:24:52.338Z,60.68
2022-08-07T06:26:47.275Z,61.52
2022-08-07T06:29:01.009Z,56.45
2022-08-07T06:31:04.236Z,56.32
2022-08-07T06:33:15.669Z,56.10
2022-08-07T06:35:18.677Z,53.02
2022-08-07T06:37:25.595Z,54.14
2022-08-07T06:40:16.243Z,52.01
2022-08-07T06:42:34.768Z,52.42
2022-08-07T06:44:39.806Z,52.53
2022-08-07T06:46:53.497Z,49.37
2022-08-07T06:49:12.409Z,48.56
2022-08-07T06:51:31.408Z,49.96
2022-08-07T06:55:28.412Z,52.85
2022-08-07T06:56:15.920Z,51.80
2022-08-07T06:58:27.572Z,48.63
2022-08-07T07:00:42.478Z,51.71
2022-08-07T07:02:54.106Z,49.34
2022-08-07T07:04:59.839Z,49.51
2022-08-07T07:07:18.801Z,51.34
2022-08-07T07:09:31.665Z,50.38
2022-08-07T07:12:08.389Z,54.33
2022-08-07T07:14:01.515Z,45.99
2022-08-07T07:16:10.188Z,47.46
2022-08-07T07:18:33.102Z,48.89
2022-08-07T07:20:52.004Z,44.13
2022-08-07T07:24:11.295Z,44.33
2022-08-07T07:26:33.289Z,43.93
2022-08-07T07:27:56.280Z,48.37
2022-08-07T07:30:09.956Z,43.90
2022-08-07T07:32:17.051Z,40.59
2022-08-07T07:34:30.542Z,42.46
2022-08-07T07:36:34.766Z,46.19
2022-08-07T07:38:46.274Z,47.08
2022-08-07T07:40:52.171Z,46.96
2022-08-07T07:43:02.333Z,47.58
2022-08-07T07:45:24.543Z,45.24
2022-08-07T07:47:52.451Z,45.03
2022-08-07T07:50:33.336Z,46.47
2022-08-07T07:52:25.817Z,42.40
2022-08-07T07:54:29.392Z,45.82
2022-08-07T07:56:33.692Z,41.19
2022-08-07T07:58:40.854Z,43.20
2022-08-07T08:00:52.130Z,42.43
2022-08-07T08:03:04.869Z,45.98
2022-08-07T08:05:11.557Z,47.27
2022-08-07T08:07:24.556Z,47.02
2022-08-07T08:09:52.233Z,46.93
2022-08-07T08:12:06.047Z,45.33
2022-08-07T08:14:14.268Z,42.88
2022-08-07T08:16:24.949Z,42.62
2022-08-07T08:18:28.265Z,46.11
2022-08-07T08:20:34.787Z,43.29
2022-08-07T08:23:00.565Z,44.49
2022-08-07T08:25:42.748Z,44.14
2022-08-07T08:27:56.530Z,45.65
2022-08-07T08:30:11.392Z,43.62
2022-08-07T08:32:25.394Z,45.51
2022-08-07T08:34:46.320Z,42.76
2022-08-07T08:36:57.640Z,43.46
2022-08-07T08:39:04.310Z,41.93
2022-08-07T08:41:58.546Z,40.10
2022-08-07T08:44:45.975Z,40.22
2022-08-07T08:47:05.528Z,44.38
2022-08-07T08:49:32.965Z,42.78
2022-08-07T08:52:36.282Z,42.33
2022-08-07T08:54:53.794Z,38.20
2022-08-07T08:57:00.417Z,42.44
2022-08-07T08:59:19.159Z,42.88
2022-08-07T09:01:44.222Z,41.14
2022-08-07T09:04:08.983Z,41.39
2022-08-07T09:06:59.804Z,40.99
2022-08-07T09:09:29.890Z,44.76
2022-08-07T09:11:54.174Z,46.61
2022-08-07T09:14:09.810Z,45.52
2022-08-07T09:16:29.890Z,41.93
2022-08-07T09:19:52.283Z,45.22
2022-08-07T09:24:27.454Z,46.01
2022-08-07T09:25:18.915Z,45.30
2022-08-07T09:28:06.314Z,49.05
2022-08-07T09:30:54.295Z,39.80
2022-08-07T09:33:52.770Z,40.36
2022-08-07T09:36:13.478Z,45.53
2022-08-07T09:38:36.936Z,41.59
2022-08-07T09:40:48.075Z,40.79
2022-08-07T09:43:08.456Z,41.82
2022-08-07T09:47:25.812Z,45.95
2022-08-07T09:48:02.976Z,41.87
2022-08-07T09:50:23.040Z,41.86
2022-08-07T09:52:44.418Z,47.17
2022-08-07T09:55:01.732Z,42.45
2022-08-07T09:57:56.297Z,43.21
2022-08-07T10:00:06.409Z,40.78
2022-08-07T10:02:35.225Z,41.29
2022-08-07T10:04:52.979Z,41.66
2022-08-07T10:07:01.121Z,41.31
2022-08-07T10:09:42.904Z,44.36
2022-08-07T10:12:21.475Z,43.70
2022-08-07T10:14:30.359Z,41.58
2022-08-07T10:16:49.280Z,42.65
2022-08-07T10:19:11.674Z,42.85
2022-08-07T10:22:13.991Z,43.64
2022-08-07T10:24:24.054Z,43.28
2022-08-07T10:26:36.233Z,43.24
2022-08-07T10:28:50.307Z,39.81
2022-08-07T10:31:17.965Z,42.30
2022-08-07T10:34:05.601Z,43.24
2022-08-07T10:36:18.065Z,44.40
2022-08-07T10:38:51.059Z,42.36
2022-08-07T10:41:52.368Z,45.93
2022-08-07T10:44:07.532Z,43.56
2022-08-07T10:46:18.313Z,43.68
2022-08-07T10:48:48.955Z,43.53
2022-08-07T10:51:39.397Z,44.97
2022-08-07T10:54:00.193Z,43.90
2022-08-07T10:56:30.933Z,43.47
2022-08-07T10:59:06.984Z,41.34
2022-08-07T11:01:22.334Z,43.86
2022-08-07T11:03:52.621Z,45.77
2022-08-07T11:06:18.184Z,41.09
2022-08-07T11:08:49.221Z,40.12
2022-08-07T11:11:14.401Z,40.75
2022-08-07T11:14:42.126Z,40.23
2022-08-07T11:16:07.212Z,41.47
2022-08-07T11:18:12.527Z,44.36
2022-08-07T11:20:24.629Z,41.34
2022-08-07T11:23:20.590Z,45.57
2022-08-07T11:26:06.520Z,44.35
2022-08-07T11:28:15.382Z,44.93
2022-08-07T11:30:41.500Z,47.27
2022-08-07T11:32:58.968Z,42.00
2022-08-07T11:35:10.973Z,46.02
2022-08-07T11:40:51.979Z,41.09
2022-08-07T11:43:54.623Z,40.95
2022-08-07T11:46:07.114Z,41.00
2022-08-07T11:48:29.787Z,43.37
2022-08-07T11:51:41.551Z,40.26
2022-08-07T11:54:11.935Z,42.02
2022-08-07T11:56:28.245Z,42.95
2022-08-07T11:58:59.989Z,44.15
2022-08-07T12:01:20.185Z,42.11
2022-08-07T12:04:09.633Z,40.83
2022-08-07T12:06:37.864Z,42.47
2022-08-07T12:08:58.618Z,44.74
2022-08-07T12:11:24.027Z,44.70
2022-08-07T12:13:51.110Z,45.40
2022-08-07T12:16:06.733Z,42.57
2022-08-07T12:18:32.669Z,45.07
2022-08-07T12:20:52.320Z,42.82
2022-08-07T12:23:21.430Z,40.90
2022-08-07T12:26:05.323Z,38.77
2022-08-07T12:28:31.135Z,38.40
2022-08-07T12:30:39.258Z,39.31
2022-08-07T12:32:58.554Z,39.68
2022-08-07T12:35:05.730Z,38.69
2022-08-07T12:37:16.887Z,38.43
2022-08-07T12:39:44.108Z,40.78
2022-08-07T12:41:58.592Z,38.67
2022-08-07T12:44:06.379Z,38.90
2022-08-07T12:46:15.909Z,40.84
2022-08-07T12:48:51.796Z,41.89
2022-08-07T12:51:17.154Z,41.49
2022-08-07T12:54:03.069Z,39.77
2022-08-07T12:56:04.303Z,41.96
2022-08-07T12:58:16.063Z,40.82
2022-08-07T13:00:32.651Z,42.27
2022-08-07T13:03:07.894Z,39.17
2022-08-07T13:06:04.603Z,42.30
2022-08-07T13:08:22.130Z,40.83
2022-08-07T13:10:39.857Z,42.21
2022-08-07T13:12:56.123Z,41.38
2022-08-07T13:15:23.791Z,43.06
2022-08-07T13:17:52.639Z,41.66
2022-08-07T13:20:09.885Z,45.30
2022-08-07T13:22:34.421Z,43.64
2022-08-07T13:24:54.975Z,44.20
2022-08-07T13:28:05.896Z,45.27
2022-08-07T13:30:19.686Z,46.55
2022-08-07T13:34:29.875Z,42.24
2022-08-07T13:35:59.516Z,43.28
2022-08-07T13:38:11.319Z,42.98
2022-08-07T13:41:05.664Z,40.95
2022-08-07T13:43:18.042Z,42.84
2022-08-07T13:46:11.145Z,43.34
2022-08-07T13:48:08.461Z,42.52
2022-08-07T13:50:34.721Z,44.37
2022-08-07T13:52:43.156Z,42.71
2022-08-07T13:54:51.886Z,42.65
2022-08-07T13:56:59.803Z,42.78
2022-08-07T13:59:05.374Z,43.87
2022-08-07T14:01:15.807Z,42.80
2022-08-07T14:03:29.218Z,44.14
2022-08-07T14:05:55.169Z,43.81
2022-08-07T14:08:01.567Z,43.13
2022-08-07T14:10:16.311Z,44.61
2022-08-07T14:12:31.231Z,42.95
2022-08-07T14:14:56.343Z,44.09
2022-08-07T14:17:13.127Z,43.76
2022-08-07T14:20:41.712Z,44.12
2022-08-07T14:22:34.594Z,42.22
2022-08-07T14:24:41.274Z,43.89
2022-08-07T14:28:09.150Z,42.06
2022-08-07T14:30:04.760Z,42.86
2022-08-07T14:32:01.852Z,43.79
2022-08-07T14:34:10.100Z,42.26
2022-08-07T14:36:21.294Z,41.61
2022-08-07T14:38:31.389Z,41.09
2022-08-07T14:40:36.574Z,42.35
2022-08-07T14:43:55.621Z,42.05
2022-08-07T14:47:35.037Z,43.54
2022-08-07T14:49:57.212Z,41.59
2022-08-07T14:52:10.633Z,43.39
2022-08-07T14:54:34.785Z,41.89
2022-08-07T14:56:47.164Z,42.97
2022-08-07T15:01:22.560Z,44.28
2022-08-07T15:03:51.696Z,44.16
2022-08-07T15:05:55.155Z,43.21
2022-08-07T15:08:12.721Z,42.70
2022-08-07T15:12:46.247Z,43.42
2022-08-07T15:15:21.040Z,43.91
2022-08-07T15:17:54.586Z,42.01
2022-08-07T15:20:33.238Z,43.74
2022-08-07T15:22:33.477Z,42.48
2022-08-07T15:25:14.834Z,44.01
2022-08-07T15:27:11.834Z,42.94
2022-08-07T15:30:06.884Z,41.68
2022-08-07T15:31:57.961Z,42.15
2022-08-07T15:34:05.247Z,42.45
2022-08-07T15:36:15.362Z,45.49
2022-08-07T15:38:51.433Z,42.19
2022-08-07T15:41:23.512Z,43.30
2022-08-07T15:45:56.447Z,43.16
2022-08-07T15:48:25.643Z,43.13
2022-08-07T15:50:37.944Z,42.59
2022-08-07T15:53:11.844Z,42.85
2022-08-07T15:55:20.228Z,44.54
2022-08-07T15:57:47.927Z,44.39
2022-08-07T15:59:51.489Z,40.95
2022-08-07T16:02:02.812Z,41.18
2022-08-07T16:04:15.464Z,43.10
2022-08-07T16:06:28.357Z,43.23
2022-08-07T16:08:38.502Z,44.95
2022-08-07T16:10:47.226Z,43.08
2022-08-07T16:13:17.338Z,43.16
2022-08-07T16:15:57.979Z,44.04
2022-08-07T16:18:49.390Z,42.38
2022-08-07T16:22:02.446Z,42.09
2022-08-07T16:23:53.496Z,43.73
2022-08-07T16:26:10.031Z,43.59
2022-08-07T16:30:09.209Z,42.76
2022-08-07T16:31:09.927Z,43.20
2022-08-07T16:34:03.054Z,44.15
2022-08-07T16:36:31.311Z,45.19
2022-08-07T16:39:01.100Z,44.51
2022-08-07T16:41:41.539Z,44.86
2022-08-07T16:44:40.523Z,45.24
2022-08-07T16:47:05.834Z,44.55
2022-08-07T16:50:20.623Z,43.57
2022-08-07T16:52:55.845Z,44.69
2022-08-07T16:55:47.031Z,46.35
2022-08-07T16:58:04.056Z,46.32
2022-08-07T17:00:06.936Z,47.02
2022-08-07T17:02:53.191Z,45.65
2022-08-07T17:04:58.449Z,46.42
2022-08-07T17:07:28.475Z,46.38
2022-08-07T17:10:06.384Z,46.30
2022-08-07T17:12:33.854Z,46.87
2022-08-07T17:14:53.737Z,45.80
2022-08-07T17:17:14.693Z,45.04
2022-08-07T17:20:00.963Z,47.35
2022-08-07T17:21:52.293Z,48.05
2022-08-07T17:24:17.933Z,49.50
2022-08-07T17:26:48.189Z,48.22
2022-08-07T17:28:55.761Z,49.10
2022-08-07T17:31:16.909Z,49.91
2022-08-07T17:34:10.194Z,53.05
2022-08-07T17:35:55.938Z,55.10
2022-08-07T17:38:22.144Z,57.11
2022-08-07T17:41:12.325Z,57.56
2022-08-07T17:44:01.481Z,53.17
2022-08-07T17:46:07.774Z,54.54
2022-08-07T17:48:32.632Z,56.09
2022-08-07T17:50:47.137Z,57.83
2022-08-07T17:53:01.347Z,58.96
2022-08-07T17:55:54.919Z,59.46
2022-08-07T17:58:02.039Z,60.21
2022-08-07T18:00:32.905Z,61.17
2022-08-07T18:02:56.828Z,64.12
2022-08-07T18:05:20.971Z,63.13
2022-08-07T18:07:24.445Z,64.03
2022-08-07T18:10:04.354Z,64.75
2022-08-07T18:12:16.709Z,65.63
2022-08-07T18:14:31.150Z,67.90
2022-08-07T18:16:36.805Z,67.26
2022-08-07T18:21:06.352Z,69.55
2022-08-07T18:22:11.081Z,70.86
2022-08-07T18:24:51.310Z,70.61
2022-08-07T18:27:25.357Z,69.41
2022-08-07T18:30:07.142Z,69.31
2022-08-07T18:32:41.650Z,72.83
2022-08-07T18:35:09.572Z,75.00
2022-08-07T18:38:55.111Z,75.72
2022-08-07T18:40:06.590Z,76.48
2022-08-07T18:42:21.958Z,75.07
2022-08-07T18:45:39.816Z,79.34
2022-08-07T18:47:22.664Z,80.37
2022-08-07T18:50:29.986Z,77.34
2022-08-07T18:53:05.762Z,77.93
2022-08-07T18:55:42.985Z,77.63
2022-08-07T18:58:00.493Z,78.64
2022-08-07T19:00:32.612Z,78.69
2022-08-07T19:02:42.482Z,79.92
2022-08-07T19:05:10.134Z,82.05
2022-08-07T19:07:35.014Z,81.35
2022-08-07T19:10:05.014Z,81.48
2022-08-07T19:12:48.946Z,81.11
2022-08-07T19:16:04.410Z,82.31
2022-08-07T19:18:11.397Z,82.58
2022-08-07T19:20:29.357Z,82.61
2022-08-07T19:22:52.772Z,83.26
2022-08-07T19:24:57.130Z,84.22
2022-08-07T19:28:29.801Z,83.54
2022-08-07T19:30:58.293Z,84.09
2022-08-07T19:32:07.918Z,85.65
2022-08-07T19:34:32.724Z,84.03
2022-08-07T19:36:51.960Z,85.15
2022-08-07T19:38:59.664Z,86.08
2022-08-07T19:41:03.294Z,86.16
2022-08-07T19:43:21.524Z,85.53
2022-08-07T19:46:08.216Z,88.85
2022-08-07T19:47:55.943Z,89.12
2022-08-07T19:50:03.153Z,88.99
2022-08-07T19:52:28.221Z,88.82
2022-08-07T19:54:55.915Z,87.18
2022-08-07T19:57:51.208Z,84.04
2022-08-07T19:59:37.960Z,83.84
2022-08-07T20:01:56.066Z,84.65
2022-08-07T20:04:01.938Z,85.75
2022-08-07T20:06:15.265Z,86.95
2022-08-07T20:08:25.225Z,87.25
2022-08-07T20:10:36.676Z,88.21
2022-08-07T20:12:55.765Z,88.92
2022-08-07T20:15:02.838Z,89.03
2022-08-07T20:17:10.185Z,88.83
2022-08-07T20:19:21.097Z,89.34
2022-08-07T20:21:25.681Z,89.11
2022-08-07T20:23:51.946Z,88.28
2022-08-07T20:26:05.006Z,89.06
2022-08-07T20:28:17.339Z,89.14
2022-08-07T20:30:37.194Z,90.03
2022-08-07T20:32:44.995Z,90.16
2022-08-07T20:35:08.082Z,89.78
2022-08-07T20:37:29.564Z,89.93
2022-08-07T20:40:02.959Z,89.90
2022-08-07T20:42:09.318Z,90.32
2022-08-07T20:44:19.045Z,91.39
2022-08-07T20:46:32.262Z,91.65
2022-08-07T20:48:39.167Z,91.36
2022-08-07T20:51:04.368Z,92.11
2022-08-07T20:53:16.205Z,92.34
2022-08-07T20:55:32.244Z,92.28
2022-08-07T20:58:03.630Z,93.40
2022-08-07T21:00:09.536Z,93.64
2022-08-07T21:02:54.279Z,93.52
2022-08-07T21:05:01.435Z,93.37
2022-08-07T21:07:14.282Z,93.01
2022-08-07T21:09:24.502Z,92.89
2022-08-07T21:11:40.215Z,92.96
2022-08-07T21:14:32.883Z,92.89
2022-08-07T21:17:06.645Z,92.87
2022-08-07T21:19:13.951Z,92.87
2022-08-07T21:21:17.555Z,93.50
2022-08-07T21:23:35.865Z,93.63
2022-08-07T21:26:03.857Z,93.56
2022-08-07T21:28:48.306Z,94.81
2022-08-07T21:31:31.643Z,94.88
2022-08-07T21:33:56.491Z,94.92
2022-08-07T21:36:30.877Z,95.26
2022-08-07T21:39:48.077Z,96.29
2022-08-07T21:41:38.116Z,96.71
2022-08-07T21:44:29.806Z,96.54
2022-08-07T21:46:52.582Z,96.44
2022-08-07T21:49:25.555Z,96.15
2022-08-07T21:51:27.637Z,96.69
2022-08-07T21:53:53.254Z,96.63
2022-08-07T21:56:16.797Z,96.66
2022-08-07T21:59:14.272Z,96.77
2022-08-07T22:02:07.199Z,96.40
2022-08-07T22:04:02.594Z,96.52
2022-08-07T22:06:30.122Z,96.51
2022-08-07T22:08:50.157Z,96.55
2022-08-07T22:11:00.010Z,96.43
2022-08-07T22:13:17.411Z,96.22
2022-08-07T22:16:39.291Z,96.18
2022-08-07T22:18:37.745Z,95.92
2022-08-07T22:20:51.802Z,96.14
2022-08-07T22:23:06.793Z,95.96
2022-08-07T22:25:15.708Z,96.41
2022-08-07T22:27:34.031Z,96.70
2022-08-07T22:29:56.998Z,96.53
2022-08-07T22:32:21.291Z,96.73
2022-08-07T22:34:53.414Z,95.94
2022-08-07T22:37:19.352Z,95.97
2022-08-07T22:39:59.281Z,96.24
2022-08-07T22:42:36.500Z,95.99
2022-08-07T22:44:57.871Z,95.98
2022-08-07T22:47:16.785Z,96.25
2022-08-07T22:49:38.128Z,96.82
2022-08-07T22:51:55.580Z,96.91
2022-08-07T22:54:16.133Z,96.91
2022-08-07T22:56:38.072Z,96.62
2022-08-07T22:59:05.337Z,96.95
2022-08-07T23:01:49.683Z,97.20
2022-08-07T23:04:29.899Z,97.80
2022-08-07T23:07:18.431Z,97.89
2022-08-07T23:10:04.376Z,98.25
2022-08-07T23:12:34.766Z,98.09
2022-08-07T23:15:00.569Z,98.37
2022-08-07T23:17:35.970Z,98.81
2022-08-07T23:20:15.159Z,98.65
2022-08-07T23:22:20.786Z,98.81
2022-08-07T23:24:50.395Z,98.61
2022-08-07T23:27:16.516Z,98.60
2022-08-07T23:30:37.063Z,98.26
2022-08-07T23:34:21.275Z,98.55
2022-08-07T23:36:28.690Z,99.65
2022-08-07T23:38:54.643Z,99.72
2022-08-07T23:41:22.328Z,99.73
2022-08-07T23:44:03.732Z,99.60
2022-08-07T23:46:27.471Z,99.79
2022-08-07T23:48:51.794Z,99.51
2022-08-07T23:52:58.439Z,99.33
2022-08-07T23:54:28.492Z,99.75
2022-08-07T23:56:37.996Z,99.51
2022-08-07T23:59:10.672Z,99.81
